createdAt,value
2018-07-22T00:00:57.946Z,24.40
2018-07-22T00:03:27.372Z,24.30
2018-07-22T00:05:56.832Z,24.30
2018-07-22T00:08:26.467Z,24.30
2018-07-22T00:10:55.800Z,24.30
2018-07-22T00:13:25.186Z,24.30
2018-07-22T00:15:55.134Z,24.30
2018-07-22T00:18:24.480Z,24.30
2018-07-22T00:20:53.897Z,24.10
2018-07-22T00:23:23.384Z,24.10
2018-07-22T00:25:52.892Z,24.10
2018-07-22T00:28:22.356Z,24.10
2018-07-22T00:30:51.824Z,24.10
2018-07-22T00:33:21.537Z,24.00
2018-07-22T00:35:51.049Z,24.00
2018-07-22T00:38:20.564Z,24.00
2018-07-22T00:40:50.074Z,24.00
2018-07-22T00:43:19.482Z,23.90
2018-07-22T00:45:48.678Z,23.90
2018-07-22T00:48:18.017Z,23.90
2018-07-22T00:50:47.566Z,23.80
2018-07-22T00:53:16.946Z,23.60
2018-07-22T00:55:46.135Z,23.60
2018-07-22T00:58:15.399Z,23.60
2018-07-22T01:00:45.013Z,23.50
2018-07-22T01:03:14.468Z,23.40
2018-07-22T01:05:44.138Z,23.30
2018-07-22T01:08:13.428Z,23.40
2018-07-22T01:10:42.772Z,23.40
2018-07-22T01:13:12.294Z,23.30
2018-07-22T01:15:41.724Z,23.20
2018-07-22T01:18:11.370Z,23.20
2018-07-22T01:20:40.914Z,23.30
2018-07-22T01:23:10.430Z,23.30
2018-07-22T01:25:39.839Z,23.30
2018-07-22T01:28:09.242Z,23.40
2018-07-22T01:30:38.709Z,23.40
2018-07-22T01:33:07.984Z,23.30
2018-07-22T01:35:37.352Z,23.40
2018-07-22T01:38:06.676Z,23.40
2018-07-22T01:40:36.138Z,23.40
2018-07-22T01:43:05.527Z,23.40
2018-07-22T01:45:35.038Z,23.30
2018-07-22T01:48:04.754Z,23.30
2018-07-22T01:50:34.236Z,23.30
2018-07-22T01:53:03.712Z,23.30
2018-07-22T01:55:32.962Z,23.20
2018-07-22T01:58:02.272Z,23.30
2018-07-22T02:00:31.630Z,23.40
2018-07-22T02:03:00.882Z,23.40
2018-07-22T02:05:30.802Z,23.40
2018-07-22T02:08:00.276Z,23.40
2018-07-22T02:10:29.530Z,23.50
2018-07-22T02:12:58.944Z,23.50
2018-07-22T02:15:28.308Z,23.30
2018-07-22T02:17:57.620Z,23.30
2018-07-22T02:20:26.944Z,23.30
2018-07-22T02:22:56.488Z,23.30
2018-07-22T02:25:25.882Z,23.20
2018-07-22T02:27:55.418Z,23.20
2018-07-22T02:30:25.031Z,23.20
2018-07-22T02:32:54.620Z,23.10
2018-07-22T02:35:24.018Z,23.10
2018-07-22T02:37:53.360Z,23.00
2018-07-22T02:40:22.532Z,23.00
2018-07-22T02:42:51.726Z,23.00
2018-07-22T02:45:21.473Z,23.00
2018-07-22T02:47:50.967Z,22.90
2018-07-22T02:50:20.080Z,23.00
2018-07-22T02:52:49.426Z,23.00
2018-07-22T02:55:18.509Z,23.00
2018-07-22T02:57:47.747Z,23.10
2018-07-22T03:00:16.832Z,23.10
2018-07-22T03:02:45.892Z,23.00
2018-07-22T03:05:14.916Z,23.00
2018-07-22T03:07:43.950Z,23.00
2018-07-22T03:10:13.259Z,23.10
2018-07-22T03:12:42.249Z,23.00
2018-07-22T03:15:11.441Z,23.00
2018-07-22T03:17:40.679Z,22.80
2018-07-22T03:20:10.291Z,22.80
2018-07-22T03:22:39.430Z,22.70
2018-07-22T03:25:08.726Z,22.60
2018-07-22T03:27:37.967Z,22.60
2018-07-22T03:30:07.250Z,22.50
2018-07-22T03:32:36.553Z,22.50
2018-07-22T03:35:05.881Z,22.50
2018-07-22T03:37:35.043Z,22.50
2018-07-22T03:40:04.735Z,22.40
2018-07-22T03:42:34.397Z,22.30
2018-07-22T03:45:03.721Z,22.30
2018-07-22T03:47:33.445Z,22.20
2018-07-22T03:50:02.854Z,22.30
2018-07-22T03:52:32.759Z,22.10
2018-07-22T03:55:02.879Z,22.10
2018-07-22T03:57:32.685Z,22.10
2018-07-22T04:00:02.787Z,22.20
2018-07-22T04:02:32.959Z,22.10
2018-07-22T04:05:02.853Z,22.10
2018-07-22T04:07:32.767Z,22.20
2018-07-22T04:10:02.378Z,22.10
2018-07-22T04:12:32.399Z,22.10
2018-07-22T04:15:02.155Z,22.10
2018-07-22T04:17:32.273Z,22.10
2018-07-22T04:20:02.284Z,22.00
2018-07-22T04:22:31.947Z,22.00
2018-07-22T04:25:02.098Z,22.00
2018-07-22T04:27:32.304Z,22.00
2018-07-22T04:30:03.075Z,22.00
2018-07-22T04:32:33.599Z,22.00
2018-07-22T04:35:03.659Z,22.00
2018-07-22T04:37:33.757Z,22.00
2018-07-22T04:40:03.777Z,21.90
2018-07-22T04:42:33.479Z,22.00
2018-07-22T04:45:03.141Z,22.00
2018-07-22T04:47:32.931Z,22.00
2018-07-22T04:50:02.813Z,22.10
2018-07-22T04:52:33.014Z,22.10
2018-07-22T04:55:02.835Z,22.10
2018-07-22T04:57:32.835Z,22.10
2018-07-22T05:00:02.435Z,22.20
2018-07-22T05:02:32.848Z,22.10
2018-07-22T05:05:03.047Z,22.10
2018-07-22T05:07:32.892Z,22.20
2018-07-22T05:10:02.933Z,22.10
2018-07-22T05:12:33.059Z,22.10
2018-07-22T05:15:02.944Z,22.00
2018-07-22T05:17:33.923Z,22.00
2018-07-22T05:20:03.544Z,22.00
2018-07-22T05:22:33.383Z,22.00
2018-07-22T05:25:03.249Z,22.00
2018-07-22T05:27:33.211Z,22.10
2018-07-22T05:30:03.239Z,22.00
2018-07-22T05:32:33.359Z,22.10
2018-07-22T05:35:03.011Z,22.20
2018-07-22T05:37:32.994Z,22.20
2018-07-22T05:40:02.986Z,22.20
2018-07-22T05:42:32.947Z,22.20
2018-07-22T05:45:02.910Z,22.30
2018-07-22T05:47:33.039Z,22.30
2018-07-22T05:50:02.937Z,22.20
2018-07-22T05:52:33.095Z,22.30
2018-07-22T05:55:02.979Z,22.20
2018-07-22T05:57:33.699Z,22.30
2018-07-22T06:00:03.319Z,22.30
2018-07-22T06:02:33.137Z,22.30
2018-07-22T06:05:02.877Z,22.30
2018-07-22T06:07:32.787Z,22.30
2018-07-22T06:10:02.833Z,22.40
2018-07-22T06:12:32.888Z,22.30
2018-07-22T06:15:02.924Z,22.40
2018-07-22T06:17:32.687Z,22.50
2018-07-22T06:20:02.984Z,22.50
2018-07-22T06:22:33.301Z,22.50
2018-07-22T06:25:03.435Z,22.70
2018-07-22T06:27:33.693Z,22.80
2018-07-22T06:30:03.548Z,22.90
2018-07-22T06:32:33.885Z,23.10
2018-07-22T06:35:03.971Z,23.20
2018-07-22T06:37:34.188Z,23.30
2018-07-22T06:40:04.184Z,23.50
2018-07-22T06:42:33.921Z,23.70
2018-07-22T06:45:03.680Z,23.80
2018-07-22T06:47:33.563Z,23.70
2018-07-22T06:50:03.521Z,23.90
2018-07-22T06:52:33.036Z,24.00
2018-07-22T06:55:02.749Z,24.10
2018-07-22T06:57:32.888Z,24.30
2018-07-22T07:00:02.996Z,24.30
2018-07-22T07:02:32.939Z,24.30
2018-07-22T07:05:03.018Z,24.40
2018-07-22T07:07:33.568Z,24.30
2018-07-22T07:10:03.427Z,24.40
2018-07-22T07:12:33.572Z,24.40
2018-07-22T07:15:03.507Z,24.50
2018-07-22T07:17:33.232Z,24.40
2018-07-22T07:20:03.144Z,24.40
2018-07-22T07:22:32.902Z,24.50
2018-07-22T07:25:02.664Z,24.70
2018-07-22T07:27:32.879Z,24.80
2018-07-22T07:30:02.890Z,24.90
2018-07-22T07:32:32.579Z,25.10
2018-07-22T07:35:02.784Z,25.10
2018-07-22T07:37:32.876Z,25.30
2018-07-22T07:40:02.946Z,25.40
2018-07-22T07:42:33.008Z,25.60
2018-07-22T07:45:03.074Z,25.80
2018-07-22T07:47:33.091Z,25.70
2018-07-22T07:50:03.298Z,25.90
2018-07-22T07:52:33.528Z,26.00
2018-07-22T07:55:03.332Z,26.20
2018-07-22T07:57:33.210Z,26.50
2018-07-22T08:00:03.194Z,26.60
2018-07-22T08:02:33.125Z,26.60
2018-07-22T08:05:03.030Z,26.60
2018-07-22T08:07:33.075Z,26.60
2018-07-22T08:10:02.984Z,26.70
2018-07-22T08:12:32.986Z,26.90
2018-07-22T08:15:03.053Z,27.00
2018-07-22T08:17:33.282Z,27.20
2018-07-22T08:20:03.192Z,27.20
2018-07-22T08:22:33.070Z,27.30
2018-07-22T08:25:03.028Z,27.50
2018-07-22T08:27:33.172Z,27.50
2018-07-22T08:30:02.919Z,27.70
2018-07-22T08:32:32.616Z,28.00
2018-07-22T08:35:02.728Z,28.30
2018-07-22T08:37:33.084Z,28.20
2018-07-22T08:40:03.134Z,28.10
2018-07-22T08:42:33.106Z,28.30
2018-07-22T08:45:03.103Z,28.10
2018-07-22T08:47:33.065Z,28.60
2018-07-22T08:50:03.126Z,28.90
2018-07-22T08:52:33.433Z,28.70
2018-07-22T08:55:03.146Z,28.80
2018-07-22T08:57:33.039Z,29.10
2018-07-22T09:00:02.973Z,29.00
2018-07-22T09:02:33.240Z,29.20
2018-07-22T09:05:02.926Z,29.40
2018-07-22T09:07:32.972Z,29.40
2018-07-22T09:10:02.947Z,29.50
2018-07-22T09:12:33.069Z,29.70
2018-07-22T09:15:03.051Z,29.70
2018-07-22T09:17:32.919Z,29.60
2018-07-22T09:20:02.962Z,29.80
2018-07-22T09:22:32.959Z,29.70
2018-07-22T09:25:03.172Z,29.90
2018-07-22T09:27:33.632Z,30.00
2018-07-22T09:30:03.417Z,29.90
2018-07-22T09:32:33.462Z,30.00
2018-07-22T09:35:03.664Z,30.10
2018-07-22T09:37:33.493Z,30.00
2018-07-22T09:40:03.185Z,30.30
2018-07-22T09:42:33.178Z,30.10
2018-07-22T09:45:02.994Z,29.80
2018-07-22T09:47:32.629Z,29.90
2018-07-22T09:50:02.772Z,30.00
2018-07-22T09:52:32.987Z,30.20
2018-07-22T09:55:02.929Z,30.10
2018-07-22T09:57:32.938Z,30.10
2018-07-22T10:00:03.413Z,30.00
2018-07-22T10:02:33.015Z,30.20
2018-07-22T10:05:03.123Z,30.00
2018-07-22T10:07:32.995Z,29.90
2018-07-22T10:10:02.983Z,29.90
2018-07-22T10:12:32.945Z,29.90
2018-07-22T10:15:02.866Z,30.20
2018-07-22T10:17:32.662Z,30.10
2018-07-22T10:20:02.738Z,30.20
2018-07-22T10:22:32.947Z,30.30
2018-07-22T10:25:03.021Z,30.10
2018-07-22T10:27:33.256Z,30.20
2018-07-22T10:30:03.582Z,30.30
2018-07-22T10:32:33.535Z,30.40
2018-07-22T10:35:03.206Z,30.70
2018-07-22T10:37:33.239Z,30.60
2018-07-22T10:40:03.195Z,30.80
2018-07-22T10:42:33.008Z,30.60
2018-07-22T10:45:03.056Z,30.50
2018-07-22T10:47:32.960Z,30.80
2018-07-22T10:50:03.802Z,30.80
2018-07-22T10:52:33.438Z,30.90
2018-07-22T10:55:03.389Z,30.30
2018-07-22T10:57:33.020Z,30.20
2018-07-22T11:00:03.091Z,30.10
2018-07-22T11:02:33.353Z,30.30
2018-07-22T11:05:03.221Z,30.20
2018-07-22T11:07:33.219Z,30.20
2018-07-22T11:10:03.487Z,30.10
2018-07-22T11:12:33.120Z,30.00
2018-07-22T11:15:03.169Z,30.20
2018-07-22T11:17:33.006Z,30.40
2018-07-22T11:20:03.114Z,30.40
2018-07-22T11:22:33.330Z,30.40
2018-07-22T11:25:02.996Z,30.10
2018-07-22T11:27:32.900Z,30.20
2018-07-22T11:30:02.783Z,30.40
2018-07-22T11:32:32.856Z,30.40
2018-07-22T11:35:03.128Z,30.50
2018-07-22T11:37:32.968Z,30.60
2018-07-22T11:40:02.719Z,30.60
2018-07-22T11:42:32.718Z,30.90
2018-07-22T11:45:03.169Z,31.00
2018-07-22T11:47:33.085Z,31.00
2018-07-22T11:50:03.024Z,31.00
2018-07-22T11:52:33.116Z,31.20
2018-07-22T11:55:02.912Z,31.10
2018-07-22T11:57:32.719Z,30.90
2018-07-22T12:00:03.050Z,30.90
2018-07-22T12:02:33.148Z,31.10
2018-07-22T12:05:03.190Z,31.10
2018-07-22T12:07:33.110Z,31.30
2018-07-22T12:10:04.161Z,31.30
2018-07-22T12:12:34.043Z,31.30
2018-07-22T12:15:04.508Z,31.50
2018-07-22T12:17:34.282Z,31.60
2018-07-22T12:20:03.939Z,31.50
2018-07-22T12:22:33.784Z,31.60
2018-07-22T12:25:03.332Z,31.60
2018-07-22T12:27:33.952Z,31.40
2018-07-22T12:30:03.813Z,31.30
2018-07-22T12:32:34.000Z,31.20
2018-07-22T12:35:04.005Z,31.40
2018-07-22T12:37:33.911Z,31.40
2018-07-22T12:40:03.716Z,31.40
2018-07-22T12:42:33.545Z,31.30
2018-07-22T12:45:03.686Z,31.40
2018-07-22T12:47:33.654Z,31.40
2018-07-22T12:50:03.447Z,31.40
2018-07-22T12:52:33.558Z,31.50
2018-07-22T12:55:03.266Z,31.60
2018-07-22T12:57:33.680Z,31.60
2018-07-22T13:00:05.786Z,31.70
2018-07-22T13:02:35.886Z,31.80
2018-07-22T13:05:07.002Z,31.50
2018-07-22T13:07:37.122Z,31.30
2018-07-22T13:10:07.526Z,31.30
2018-07-22T13:12:37.592Z,31.10
2018-07-22T13:15:08.867Z,31.10
2018-07-22T13:17:38.502Z,31.00
2018-07-22T13:20:08.887Z,31.10
2018-07-22T13:22:38.814Z,31.30
2018-07-22T13:25:08.294Z,31.20
2018-07-22T13:27:38.152Z,31.00
2018-07-22T13:30:08.833Z,31.00
2018-07-22T13:32:38.858Z,30.90
2018-07-22T13:35:08.653Z,31.00
2018-07-22T13:37:38.299Z,30.80
2018-07-22T13:40:08.184Z,31.00
2018-07-22T13:42:38.153Z,31.10
2018-07-22T13:45:08.168Z,31.10
2018-07-22T13:47:38.305Z,31.10
2018-07-22T13:50:08.236Z,31.30
2018-07-22T13:52:38.207Z,31.40
2018-07-22T13:55:08.075Z,31.50
2018-07-22T13:57:38.347Z,31.50
2018-07-22T14:00:08.149Z,31.50
2018-07-22T14:02:38.522Z,31.30
2018-07-22T14:05:08.602Z,31.10
2018-07-22T14:07:38.299Z,31.00
2018-07-22T14:10:08.455Z,31.10
2018-07-22T14:12:38.237Z,30.90
2018-07-22T14:15:08.037Z,31.10
2018-07-22T14:17:38.248Z,31.00
2018-07-22T14:20:08.111Z,31.10
2018-07-22T14:22:38.119Z,31.20
2018-07-22T14:25:08.152Z,31.20
2018-07-22T14:27:38.192Z,31.20
2018-07-22T14:30:08.208Z,31.20
2018-07-22T14:32:38.728Z,31.30
2018-07-22T14:35:08.288Z,31.20
2018-07-22T14:37:38.538Z,31.20
2018-07-22T14:40:08.895Z,31.30
2018-07-22T14:42:38.497Z,31.30
2018-07-22T14:45:08.904Z,31.30
2018-07-22T14:47:38.940Z,31.40
2018-07-22T14:50:08.991Z,31.30
2018-07-22T14:52:38.846Z,31.10
2018-07-22T14:55:08.932Z,30.90
2018-07-22T14:57:38.538Z,31.00
2018-07-22T15:00:08.828Z,31.00
2018-07-22T15:02:39.488Z,31.00
2018-07-22T15:05:09.793Z,30.90
2018-07-22T15:07:40.070Z,31.00
2018-07-22T15:10:09.868Z,30.80
2018-07-22T15:12:39.561Z,30.80
2018-07-22T15:15:09.332Z,30.40
2018-07-22T15:17:39.217Z,30.50
2018-07-22T15:20:09.528Z,30.50
2018-07-22T15:22:39.620Z,30.50
2018-07-22T15:25:09.313Z,30.40
2018-07-22T15:27:40.183Z,30.50
2018-07-22T15:30:10.691Z,30.60
2018-07-22T15:32:41.157Z,30.50
2018-07-22T15:35:11.182Z,30.50
2018-07-22T15:37:41.462Z,30.60
2018-07-22T15:40:11.485Z,30.50
2018-07-22T15:42:42.029Z,30.30
2018-07-22T15:45:11.546Z,29.50
2018-07-22T15:47:41.428Z,29.40
2018-07-22T15:50:11.561Z,28.90
2018-07-22T15:52:41.300Z,28.90
2018-07-22T15:55:11.213Z,28.90
2018-07-22T15:57:41.215Z,28.70
2018-07-22T16:00:11.099Z,28.90
2018-07-22T16:02:41.935Z,29.00
2018-07-22T16:05:11.917Z,29.10
2018-07-22T16:07:42.071Z,28.90
2018-07-22T16:10:12.476Z,28.80
2018-07-22T16:12:42.651Z,28.80
2018-07-22T16:15:13.013Z,28.80
2018-07-22T16:17:43.460Z,28.70
2018-07-22T16:20:13.905Z,28.80
2018-07-22T16:22:43.721Z,28.70
2018-07-22T16:25:13.830Z,28.90
2018-07-22T16:27:44.113Z,28.90
2018-07-22T16:30:14.540Z,29.00
2018-07-22T16:32:44.884Z,29.20
2018-07-22T16:35:15.304Z,29.30
2018-07-22T16:37:45.316Z,29.30
2018-07-22T16:40:15.780Z,29.40
2018-07-22T16:42:45.948Z,29.40
2018-07-22T16:45:15.822Z,29.60
2018-07-22T16:47:47.060Z,29.70
2018-07-22T16:50:17.624Z,29.60
2018-07-22T16:52:48.584Z,29.80
2018-07-22T16:55:20.318Z,29.70
2018-07-22T16:57:50.947Z,29.60
2018-07-22T17:00:21.327Z,29.40
2018-07-22T17:02:51.989Z,29.40
2018-07-22T17:05:22.251Z,29.40
2018-07-22T17:07:53.119Z,29.40
2018-07-22T17:10:23.540Z,29.40
2018-07-22T17:12:53.355Z,29.50
2018-07-22T17:15:23.381Z,29.50
2018-07-22T17:17:53.256Z,29.50
2018-07-22T17:20:32.500Z,29.60
2018-07-22T17:23:03.555Z,29.50
2018-07-22T17:25:35.590Z,29.40
2018-07-22T17:28:05.860Z,29.30
2018-07-22T17:30:38.916Z,29.30
2018-07-22T17:33:10.337Z,29.20
2018-07-22T17:35:41.315Z,29.30
2018-07-22T17:38:12.909Z,29.20
2018-07-22T17:40:43.568Z,29.30
2018-07-22T17:43:14.745Z,29.20
2018-07-22T17:45:45.333Z,29.20
2018-07-22T17:48:15.945Z,29.20
2018-07-22T17:50:47.104Z,29.20
2018-07-22T17:53:18.347Z,29.20
2018-07-22T17:55:49.669Z,29.10
2018-07-22T17:58:20.258Z,29.00
2018-07-22T18:00:51.314Z,29.00
2018-07-22T18:03:25.780Z,28.90
2018-07-22T18:05:56.613Z,28.80
2018-07-22T18:08:27.396Z,28.80
2018-07-22T18:10:58.428Z,28.70
2018-07-22T18:13:30.430Z,28.60
2018-07-22T18:16:01.114Z,28.50
2018-07-22T18:18:32.095Z,28.40
2018-07-22T18:21:02.484Z,28.30
2018-07-22T18:23:33.031Z,28.30
2018-07-22T18:26:03.373Z,28.30
2018-07-22T18:28:34.078Z,28.30
2018-07-22T18:31:03.933Z,28.30
2018-07-22T18:33:34.742Z,28.20
2018-07-22T18:36:04.811Z,28.20
2018-07-22T18:38:34.888Z,28.20
2018-07-22T18:41:05.366Z,28.10
2018-07-22T18:43:36.043Z,28.00
2018-07-22T18:46:06.501Z,28.00
2018-07-22T18:48:37.391Z,27.90
2018-07-22T18:51:08.411Z,27.80
2018-07-22T18:53:40.037Z,27.80
2018-07-22T18:56:09.983Z,27.70
2018-07-22T18:58:40.320Z,27.70
2018-07-22T19:01:10.803Z,27.70
2018-07-22T19:03:40.854Z,27.60
2018-07-22T19:06:10.514Z,27.60
2018-07-22T19:08:40.684Z,27.60
2018-07-22T19:11:10.807Z,27.70
2018-07-22T19:13:40.790Z,27.60
2018-07-22T19:16:10.982Z,27.60
2018-07-22T19:18:40.632Z,27.60
2018-07-22T19:21:10.076Z,27.50
2018-07-22T19:23:39.748Z,27.30
2018-07-22T19:26:09.037Z,27.20
2018-07-22T19:28:38.330Z,27.10
2018-07-22T19:31:07.850Z,27.00
2018-07-22T19:33:37.352Z,27.00
2018-07-22T19:36:06.404Z,26.90
2018-07-22T19:38:35.608Z,27.00
2018-07-22T19:41:04.724Z,27.00
2018-07-22T19:43:34.017Z,27.00
2018-07-22T19:46:03.288Z,27.10
2018-07-22T19:48:32.364Z,27.00
2018-07-22T19:51:01.462Z,26.90
2018-07-22T19:53:30.501Z,26.90
2018-07-22T19:55:59.822Z,26.90
2018-07-22T19:58:30.242Z,27.00
2018-07-22T20:00:59.709Z,26.90
2018-07-22T20:03:28.803Z,26.80
2018-07-22T20:05:58.166Z,26.90
2018-07-22T20:08:27.558Z,26.80
2018-07-22T20:10:57.085Z,26.70
2018-07-22T20:13:26.256Z,26.70
2018-07-22T20:15:55.431Z,26.50
2018-07-22T20:18:24.583Z,26.50
2018-07-22T20:20:53.910Z,26.40
2018-07-22T20:23:23.359Z,26.20
2018-07-22T20:25:52.764Z,26.20
2018-07-22T20:28:22.186Z,26.10
2018-07-22T20:30:51.829Z,25.90
2018-07-22T20:33:21.371Z,25.80
2018-07-22T20:35:50.544Z,25.80
2018-07-22T20:38:20.155Z,25.80
2018-07-22T20:40:49.413Z,25.80
2018-07-22T20:43:18.661Z,25.80
2018-07-22T20:45:48.455Z,25.80
2018-07-22T20:48:18.588Z,25.70
2018-07-22T20:50:47.950Z,25.80
2018-07-22T20:53:17.217Z,25.70
2018-07-22T20:55:46.683Z,25.60
2018-07-22T20:58:16.661Z,25.60
2018-07-22T21:00:46.359Z,25.50
2018-07-22T21:03:16.544Z,25.50
2018-07-22T21:05:46.143Z,25.40
2018-07-22T21:08:15.261Z,25.50
2018-07-22T21:10:44.959Z,25.50
2018-07-22T21:13:24.457Z,25.40
2018-07-22T21:15:53.859Z,25.30
2018-07-22T21:18:23.100Z,25.20
2018-07-22T21:20:52.542Z,25.10
2018-07-22T21:23:21.695Z,24.80
2018-07-22T21:25:51.299Z,24.70
2018-07-22T21:28:20.583Z,24.80
2018-07-22T21:30:50.026Z,24.70
2018-07-22T21:33:19.479Z,24.60
2018-07-22T21:35:48.690Z,24.60
2018-07-22T21:38:18.045Z,24.60
2018-07-22T21:40:47.903Z,24.50
2018-07-22T21:43:17.459Z,24.40
2018-07-22T21:45:46.767Z,24.30
2018-07-22T21:48:16.085Z,24.20
2018-07-22T21:50:45.553Z,24.10
2018-07-22T21:53:14.981Z,23.90
2018-07-22T21:55:44.363Z,24.00
2018-07-22T21:58:13.815Z,24.00
2018-07-22T22:00:43.617Z,24.00
2018-07-22T22:03:13.008Z,24.00
2018-07-22T22:05:42.781Z,23.90
2018-07-22T22:08:12.207Z,23.80
2018-07-22T22:10:42.010Z,23.80
2018-07-22T22:13:11.465Z,23.80
2018-07-22T22:15:41.055Z,23.80
2018-07-22T22:18:10.745Z,23.70
2018-07-22T22:20:40.091Z,23.70
2018-07-22T22:23:10.413Z,23.70
2018-07-22T22:25:40.055Z,23.60
2018-07-22T22:28:09.515Z,23.70
2018-07-22T22:30:38.859Z,23.70
2018-07-22T22:33:08.178Z,23.60
2018-07-22T22:35:37.327Z,23.60
2018-07-22T22:38:06.782Z,23.50
2018-07-22T22:40:36.363Z,23.50
2018-07-22T22:43:05.992Z,23.30
2018-07-22T22:45:35.561Z,23.30
2018-07-22T22:48:04.800Z,23.30
2018-07-22T22:50:34.185Z,23.30
2018-07-22T22:53:03.425Z,23.30
2018-07-22T22:55:33.023Z,23.20
2018-07-22T22:58:13.470Z,23.20
2018-07-22T23:00:43.191Z,23.10
2018-07-22T23:03:12.457Z,23.00
2018-07-22T23:05:42.445Z,23.10
2018-07-22T23:08:11.905Z,23.20
2018-07-22T23:10:41.247Z,23.20
2018-07-22T23:13:10.536Z,23.20
2018-07-22T23:15:39.877Z,23.20
2018-07-22T23:18:09.729Z,23.10
2018-07-22T23:20:39.286Z,23.10
2018-07-22T23:23:08.972Z,22.90
2018-07-22T23:25:38.346Z,22.80
2018-07-22T23:28:07.546Z,22.70
2018-07-22T23:30:36.705Z,22.70
2018-07-22T23:33:05.928Z,22.60
2018-07-22T23:35:35.461Z,22.60
2018-07-22T23:38:04.638Z,22.50
2018-07-22T23:40:34.541Z,22.60
2018-07-22T23:43:03.843Z,22.60
2018-07-22T23:45:33.447Z,22.60
2018-07-22T23:48:03.000Z,22.50
2018-07-22T23:50:32.205Z,22.50
2018-07-22T23:53:01.494Z,22.40
2018-07-22T23:55:30.639Z,22.40
2018-07-22T23:58:00.117Z,22.40
